AAL3552 MYGF-KMIA
Flight info
| Callsign | AAL3552 |
|---|---|
| Flight time | 0h 31m |
| Altitude | 16000 |
| Route | MUNRO BNFSH2 |
| Aircraft | A20N/M-SDE2E3FGHIRWXY/LB1 |
Departure
| Time | 2026-04-21 00:50 |
|---|---|
| Airport | Grand Bahama International Airport (MYGF) |
Arrival
| Time | 2026-04-21 01:21 |
|---|---|
| Airport | Miami International Airport (KMIA) |
| Time | Latitude | Longitude | Altitude | Speed | Heading |
|---|---|---|---|---|---|
| 2026-04-21 00:36 | 26.54877 | -78.70496 | 24 ft | 0 kts | 268° |
| 2026-04-21 00:45 | 26.54877 | -78.70500 | 24 ft | 2 kts | 268° |
| 2026-04-21 00:46 | 26.54887 | -78.70527 | 24 ft | 7 kts | 305° |
| 2026-04-21 00:46 | 26.54942 | -78.70584 | 25 ft | 14 kts | 343° |
| 2026-04-21 00:46 | 26.54973 | -78.70651 | 24 ft | 12 kts | 273° |
| 2026-04-21 00:46 | 26.54975 | -78.70757 | 24 ft | 15 kts | 271° |
| 2026-04-21 00:47 | 26.54977 | -78.70889 | 24 ft | 17 kts | 271° |
| 2026-04-21 00:47 | 26.54979 | -78.70954 | 24 ft | 0 kts | 272° |
| 2026-04-21 00:47 | 26.54979 | -78.70966 | 24 ft | 3 kts | 272° |
| 2026-04-21 00:48 | 26.54994 | -78.70996 | 27 ft | 6 kts | 330° |
| 2026-04-21 00:48 | 26.55044 | -78.71004 | 24 ft | 9 kts | 0° |
| 2026-04-21 00:48 | 26.55113 | -78.71002 | 25 ft | 11 kts | 2° |
| 2026-04-21 00:48 | 26.55154 | -78.70986 | 26 ft | 4 kts | 62° |
| 2026-04-21 00:49 | 26.55156 | -78.70980 | 26 ft | 1 kts | 62° |
| 2026-04-21 00:49 | 26.55212 | -78.70864 | 26 ft | 48 kts | 60° |
| 2026-04-21 00:49 | 26.55485 | -78.70319 | 29 ft | 109 kts | 61° |
| 2026-04-21 00:49 | 26.55932 | -78.69415 | 43 ft | 154 kts | 62° |
| 2026-04-21 00:50 | 26.56422 | -78.68347 | 597 ft | 152 kts | 62° |
| 2026-04-21 00:50 | 26.56896 | -78.67310 | 1272 ft | 151 kts | 60° |
| 2026-04-21 00:50 | 26.57392 | -78.66329 | 2013 ft | 146 kts | 57° |
| 2026-04-21 00:50 | 26.57996 | -78.65335 | 2378 ft | 163 kts | 43° |
| 2026-04-21 00:51 | 26.58973 | -78.64546 | 2739 ft | 182 kts | 28° |
| 2026-04-21 00:51 | 26.60267 | -78.64197 | 3003 ft | 211 kts | 0° |
| 2026-04-21 00:51 | 26.61734 | -78.64757 | 3470 ft | 241 kts | 328° |
| 2026-04-21 00:51 | 26.62877 | -78.66260 | 4037 ft | 268 kts | 297° |
| 2026-04-21 00:52 | 26.63248 | -78.68338 | 4954 ft | 281 kts | 269° |
| 2026-04-21 00:52 | 26.62748 | -78.70448 | 6089 ft | 280 kts | 248° |
| 2026-04-21 00:52 | 26.61911 | -78.72413 | 7142 ft | 281 kts | 246° |
| 2026-04-21 00:52 | 26.61362 | -78.73732 | 7750 ft | 284 kts | 248° |
| 2026-04-21 00:53 | 26.60401 | -78.76470 | 8992 ft | 286 kts | 253° |
| 2026-04-21 00:53 | 26.59783 | -78.78595 | 9977 ft | 288 kts | 255° |
| 2026-04-21 00:53 | 26.59206 | -78.80780 | 10611 ft | 303 kts | 256° |
| 2026-04-21 00:53 | 26.58614 | -78.83125 | 10955 ft | 325 kts | 257° |
| 2026-04-21 00:54 | 26.58195 | -78.84797 | 11243 ft | 336 kts | 256° |
| 2026-04-21 00:54 | 26.57566 | -78.87292 | 12064 ft | 338 kts | 257° |
| 2026-04-21 00:54 | 26.56925 | -78.89831 | 12916 ft | 340 kts | 257° |
| 2026-04-21 00:54 | 26.56275 | -78.92389 | 13718 ft | 344 kts | 257° |
| 2026-04-21 00:55 | 26.55617 | -78.94971 | 14496 ft | 346 kts | 257° |
| 2026-04-21 00:55 | 26.54957 | -78.97563 | 15219 ft | 349 kts | 257° |
| 2026-04-21 00:55 | 26.54292 | -79.00178 | 15338 ft | 350 kts | 257° |
| 2026-04-21 00:55 | 26.53612 | -79.02792 | 15437 ft | 349 kts | 256° |
| 2026-04-21 00:56 | 26.52893 | -79.05386 | 15544 ft | 350 kts | 255° |
| 2026-04-21 00:56 | 26.52159 | -79.07986 | 15647 ft | 350 kts | 255° |
| 2026-04-21 00:56 | 26.51426 | -79.10576 | 15751 ft | 350 kts | 255° |
| 2026-04-21 00:56 | 26.50693 | -79.13177 | 15850 ft | 351 kts | 255° |
| 2026-04-21 00:57 | 26.49973 | -79.15739 | 15961 ft | 351 kts | 255° |
| 2026-04-21 00:57 | 26.49242 | -79.18347 | 15988 ft | 351 kts | 255° |
| 2026-04-21 00:57 | 26.48512 | -79.20948 | 15991 ft | 351 kts | 255° |
| 2026-04-21 00:57 | 26.47781 | -79.23553 | 15990 ft | 351 kts | 255° |
| 2026-04-21 00:58 | 26.47052 | -79.26149 | 15988 ft | 351 kts | 255° |
| 2026-04-21 00:58 | 26.46321 | -79.28749 | 15989 ft | 351 kts | 255° |
| 2026-04-21 00:58 | 26.45591 | -79.31347 | 15986 ft | 351 kts | 255° |
| 2026-04-21 00:58 | 26.44857 | -79.33950 | 15986 ft | 351 kts | 255° |
| 2026-04-21 00:59 | 26.44126 | -79.36546 | 15983 ft | 351 kts | 255° |
| 2026-04-21 00:59 | 26.43391 | -79.39153 | 15986 ft | 351 kts | 255° |
| 2026-04-21 00:59 | 26.42657 | -79.41752 | 15984 ft | 352 kts | 255° |
| 2026-04-21 00:59 | 26.41922 | -79.44352 | 15986 ft | 352 kts | 255° |
| 2026-04-21 01:00 | 26.41186 | -79.46956 | 15983 ft | 351 kts | 255° |
| 2026-04-21 01:00 | 26.40449 | -79.49559 | 15982 ft | 352 kts | 255° |
| 2026-04-21 01:00 | 26.39713 | -79.52159 | 15983 ft | 351 kts | 255° |
| 2026-04-21 01:00 | 26.38975 | -79.54762 | 15981 ft | 352 kts | 255° |
| 2026-04-21 01:01 | 26.38238 | -79.57364 | 15979 ft | 352 kts | 255° |
| 2026-04-21 01:01 | 26.37499 | -79.59964 | 15982 ft | 352 kts | 255° |
| 2026-04-21 01:01 | 26.36760 | -79.62564 | 15979 ft | 352 kts | 255° |
| 2026-04-21 01:01 | 26.36020 | -79.65166 | 15980 ft | 352 kts | 255° |
| 2026-04-21 01:02 | 26.35278 | -79.67773 | 15980 ft | 352 kts | 255° |
| 2026-04-21 01:02 | 26.34538 | -79.70373 | 15978 ft | 352 kts | 255° |
| 2026-04-21 01:02 | 26.33796 | -79.72976 | 15981 ft | 352 kts | 255° |
| 2026-04-21 01:02 | 26.33054 | -79.75578 | 15981 ft | 352 kts | 255° |
| 2026-04-21 01:03 | 26.32321 | -79.78147 | 15984 ft | 352 kts | 255° |
| 2026-04-21 01:03 | 26.31578 | -79.80749 | 15986 ft | 352 kts | 255° |
| 2026-04-21 01:03 | 26.30835 | -79.83348 | 15988 ft | 352 kts | 255° |
| 2026-04-21 01:03 | 26.30089 | -79.85958 | 15987 ft | 352 kts | 255° |
| 2026-04-21 01:04 | 26.29343 | -79.88563 | 15989 ft | 352 kts | 255° |
| 2026-04-21 01:04 | 26.28600 | -79.91158 | 15990 ft | 352 kts | 255° |
| 2026-04-21 01:04 | 26.27855 | -79.93753 | 15992 ft | 352 kts | 255° |
| 2026-04-21 01:04 | 26.27108 | -79.96357 | 15991 ft | 352 kts | 255° |
| 2026-04-21 01:05 | 26.26230 | -79.98908 | 15992 ft | 356 kts | 244° |
| 2026-04-21 01:05 | 26.24707 | -80.01100 | 15997 ft | 363 kts | 226° |
| 2026-04-21 01:05 | 26.22584 | -80.02658 | 15999 ft | 371 kts | 207° |
| 2026-04-21 01:05 | 26.20082 | -80.03452 | 15998 ft | 376 kts | 195° |
| 2026-04-21 01:06 | 26.17511 | -80.04033 | 16001 ft | 376 kts | 195° |
| 2026-04-21 01:06 | 26.14978 | -80.04590 | 15995 ft | 376 kts | 195° |
| 2026-04-21 01:06 | 26.12410 | -80.05160 | 15977 ft | 375 kts | 195° |
| 2026-04-21 01:06 | 26.09851 | -80.05734 | 15945 ft | 374 kts | 195° |
| 2026-04-21 01:07 | 26.07305 | -80.06311 | 15562 ft | 375 kts | 195° |
| 2026-04-21 01:07 | 26.04741 | -80.06920 | 14876 ft | 379 kts | 196° |
| 2026-04-21 01:07 | 26.02154 | -80.07595 | 14025 ft | 386 kts | 197° |
| 2026-04-21 01:07 | 25.99543 | -80.08292 | 13304 ft | 386 kts | 196° |
| 2026-04-21 01:08 | 25.96927 | -80.08987 | 12696 ft | 383 kts | 196° |
| 2026-04-21 01:08 | 25.94372 | -80.09733 | 12093 ft | 378 kts | 202° |
| 2026-04-21 01:08 | 25.92052 | -80.11014 | 11491 ft | 372 kts | 216° |
| 2026-04-21 01:08 | 25.90088 | -80.12873 | 10878 ft | 368 kts | 229° |
| 2026-04-21 01:09 | 25.88565 | -80.15104 | 10456 ft | 358 kts | 244° |
| 2026-04-21 01:09 | 25.87823 | -80.17667 | 10307 ft | 339 kts | 263° |
| 2026-04-21 01:09 | 25.87641 | -80.20185 | 10179 ft | 324 kts | 270° |
| 2026-04-21 01:09 | 25.87615 | -80.22577 | 9998 ft | 305 kts | 271° |
| 2026-04-21 01:10 | 25.87606 | -80.24925 | 9565 ft | 295 kts | 271° |
| 2026-04-21 01:10 | 25.87579 | -80.27204 | 8924 ft | 294 kts | 271° |
| 2026-04-21 01:10 | 25.87531 | -80.29467 | 8336 ft | 293 kts | 270° |
| 2026-04-21 01:10 | 25.87466 | -80.31710 | 7773 ft | 290 kts | 270° |
| 2026-04-21 01:11 | 25.87394 | -80.33946 | 7199 ft | 288 kts | 270° |
| 2026-04-21 01:11 | 25.87320 | -80.36160 | 6634 ft | 287 kts | 270° |
| 2026-04-21 01:11 | 25.87246 | -80.38339 | 6356 ft | 275 kts | 270° |
| 2026-04-21 01:11 | 25.87173 | -80.40499 | 6269 ft | 285 kts | 270° |
| 2026-04-21 01:12 | 25.87100 | -80.42680 | 6162 ft | 284 kts | 270° |
| 2026-04-21 01:12 | 25.87025 | -80.44868 | 5933 ft | 284 kts | 270° |
| 2026-04-21 01:12 | 25.86951 | -80.47061 | 5687 ft | 284 kts | 270° |
| 2026-04-21 01:12 | 25.86880 | -80.49259 | 5435 ft | 285 kts | 270° |
| 2026-04-21 01:13 | 25.86809 | -80.51455 | 5190 ft | 284 kts | 270° |
| 2026-04-21 01:13 | 25.86740 | -80.53652 | 4949 ft | 285 kts | 271° |
| 2026-04-21 01:13 | 25.86666 | -80.55845 | 4694 ft | 284 kts | 269° |
| 2026-04-21 01:13 | 25.86163 | -80.57962 | 4491 ft | 287 kts | 242° |
| 2026-04-21 01:14 | 25.84868 | -80.59635 | 4301 ft | 288 kts | 214° |
| 2026-04-21 01:14 | 25.83054 | -80.60506 | 4139 ft | 282 kts | 186° |
| 2026-04-21 01:14 | 25.81114 | -80.60451 | 3970 ft | 278 kts | 162° |
| 2026-04-21 01:14 | 25.79459 | -80.59528 | 3793 ft | 260 kts | 133° |
| 2026-04-21 01:15 | 25.78396 | -80.58001 | 3629 ft | 244 kts | 117° |
| 2026-04-21 01:15 | 25.77825 | -80.56322 | 3475 ft | 224 kts | 85° |
| 2026-04-21 01:15 | 25.78148 | -80.54713 | 3390 ft | 208 kts | 68° |
| 2026-04-21 01:15 | 25.78623 | -80.53230 | 3298 ft | 199 kts | 67° |
| 2026-04-21 01:16 | 25.79035 | -80.51788 | 3212 ft | 204 kts | 73° |
| 2026-04-21 01:16 | 25.79252 | -80.50229 | 3119 ft | 205 kts | 81° |
| 2026-04-21 01:16 | 25.79308 | -80.48668 | 3029 ft | 198 kts | 83° |
| 2026-04-21 01:16 | 25.79367 | -80.47183 | 2894 ft | 189 kts | 81° |
| 2026-04-21 01:17 | 25.79425 | -80.45738 | 2685 ft | 185 kts | 81° |
| 2026-04-21 01:17 | 25.79482 | -80.44358 | 2463 ft | 172 kts | 82° |
| 2026-04-21 01:17 | 25.79532 | -80.43096 | 2287 ft | 156 kts | 81° |
| 2026-04-21 01:17 | 25.79587 | -80.41880 | 2076 ft | 160 kts | 81° |
| 2026-04-21 01:18 | 25.79636 | -80.40650 | 1862 ft | 160 kts | 81° |
| 2026-04-21 01:18 | 25.79688 | -80.39406 | 1660 ft | 161 kts | 81° |
| 2026-04-21 01:18 | 25.79741 | -80.38160 | 1436 ft | 163 kts | 81° |
| 2026-04-21 01:18 | 25.79786 | -80.36945 | 1233 ft | 148 kts | 80° |
| 2026-04-21 01:19 | 25.79830 | -80.35880 | 1032 ft | 127 kts | 79° |
| 2026-04-21 01:19 | 25.79875 | -80.34909 | 874 ft | 124 kts | 79° |
| 2026-04-21 01:19 | 25.79914 | -80.33955 | 722 ft | 127 kts | 78° |
| 2026-04-21 01:19 | 25.79955 | -80.32962 | 549 ft | 127 kts | 82° |
| 2026-04-21 01:20 | 25.79996 | -80.32008 | 414 ft | 124 kts | 84° |
| 2026-04-21 01:20 | 25.80024 | -80.31028 | 245 ft | 127 kts | 84° |
| 2026-04-21 01:20 | 25.80067 | -80.30062 | 60 ft | 127 kts | 83° |
| 2026-04-21 01:20 | 25.80116 | -80.29140 | 20 ft | 102 kts | 86° |
| 2026-04-21 01:21 | 25.80145 | -80.28489 | 17 ft | 62 kts | 92° |
| 2026-04-21 01:21 | 25.80160 | -80.28109 | 13 ft | 29 kts | 87° |
| 2026-04-21 01:21 | 25.80094 | -80.27945 | 12 ft | 12 kts | 135° |
| 2026-04-21 01:21 | 25.80015 | -80.27906 | 12 ft | 14 kts | 158° |
| 2026-04-21 01:22 | 25.79932 | -80.27877 | 13 ft | 6 kts | 178° |
| 2026-04-21 01:22 | 25.79882 | -80.27880 | 15 ft | 9 kts | 183° |
| 2026-04-21 01:22 | 25.79813 | -80.27883 | 15 ft | 11 kts | 178° |
| 2026-04-21 01:22 | 25.79773 | -80.27880 | 16 ft | 1 kts | 177° |
| 2026-04-21 01:23 | 25.79771 | -80.27880 | 16 ft | 0 kts | 176° |